Koszta, Iowa
Current Conditions -  °F | °C
As of 10:55 PM on Thursday 30 Oct 2014 (Local Time) from KVTI Reporting Station
Scattered Clouds Scattered Clouds  
Wind Chill: 50°   Ceiling: Unl
Heat Index: 50°   Visibility: 10mi
Dew Point: 38°   Wind: 12mph
Humidity: 64%   Direction: 350°N
Pressure: 30.17"   Gusts: 16mph
Location:  41.9061°N, 92.1836°W
Report Text: KVTI 310355Z AUTO 35010G14KT 10SM SCT035 SCT044 10/04 A3017 RMK AO2 T01010035
Loading
Personal Weather Stations






























Interactive Weather Map
Tropical Storm Tracking
New forecast layout! Learn more

10-Day Weather Forecast

Advertisements
Track Severe Weather on mobile